Time;durP1;ratioP1;P1;durP2;ratioP2;P2;SDS_P1;SDS_P2;PMS_P1;PMS_P2;Temp;Humidity;BMP_temperature;BMP_pressure;BME280_temperature;BME280_humidity;BME280_pressure;Samples;Min_cycle;Max_cycle;Signal;HPM_P1;HPM_P2
2022/12/18 00:02:16;;;;;;;130.50;52.37;;;-3.70;99.90;;;;;;5047101;28;20047;-54
2022/12/18 00:04:42;;;;;;;129.17;48.97;;;-3.70;99.90;;;;;;5047012;28;20545;-54
2022/12/18 00:07:08;;;;;;;137.87;50.67;;;-3.70;99.90;;;;;;5047391;28;20128;-56
2022/12/18 00:09:33;;;;;;;137.60;55.90;;;-3.70;99.90;;;;;;5048179;28;20033;-51
2022/12/18 00:11:59;;;;;;;138.17;53.97;;;-3.70;99.90;;;;;;5048102;28;20044;-54
2022/12/18 00:14:24;;;;;;;143.53;50.80;;;-3.80;99.90;;;;;;5047478;28;20067;-53
2022/12/18 00:16:50;;;;;;;138.97;53.10;;;-3.80;99.90;;;;;;5048352;28;20021;-52
2022/12/18 00:19:16;;;;;;;142.77;53.87;;;-3.80;99.90;;;;;;5047520;28;20044;-50
2022/12/18 00:21:42;;;;;;;124.95;51.88;;;-3.80;99.90;;;;;;5048620;28;20044;-50
2022/12/18 00:24:09;;;;;;;135.55;50.85;;;-3.80;99.90;;;;;;5047166;28;20446;-50
2022/12/18 00:26:36;;;;;;;132.00;51.08;;;-3.90;99.90;;;;;;5048162;28;20032;-52
2022/12/18 00:29:06;;;;;;;126.70;51.63;;;-3.90;99.90;;;;;;5047767;28;20047;-50
2022/12/18 00:31:32;;;;;;;126.30;49.22;;;-3.90;99.90;;;;;;5046107;28;20120;-52
2022/12/18 00:33:58;;;;;;;123.63;48.67;;;-4.00;99.90;;;;;;5045427;28;20041;-50
2022/12/18 00:36:27;;;;;;;132.23;48.08;;;-4.00;99.90;;;;;;5047971;28;20033;-52
2022/12/18 00:38:54;;;;;;;123.00;47.47;;;-4.10;99.90;;;;;;5045276;28;20404;-52
2022/12/18 00:44:06;;;;;;;116.13;47.70;;;-4.20;99.90;;;;;;5046438;28;20060;-53
2022/12/18 00:46:32;;;;;;;126.95;48.42;;;-4.20;99.90;;;;;;5046282;28;20032;-51
2022/12/18 00:48:59;;;;;;;125.07;49.58;;;-4.20;99.90;;;;;;5047283;28;20120;-51
2022/12/18 00:51:25;;;;;;;137.25;54.70;;;-4.30;99.90;;;;;;5047746;28;20065;-50
2022/12/18 00:53:51;;;;;;;134.30;50.45;;;-4.30;99.90;;;;;;5046499;28;20073;-51
2022/12/18 00:56:16;;;;;;;117.13;49.50;;;-4.30;99.90;;;;;;5050024;28;20060;-53
2022/12/18 00:58:42;;;;;;;116.33;48.17;;;-4.40;99.90;;;;;;5032456;28;20564;-51
2022/12/18 01:01:08;;;;;;;126.50;51.47;;;-4.40;99.90;;;;;;5051140;28;20436;-53
2022/12/18 01:03:34;;;;;;;124.95;49.83;;;-4.50;99.90;;;;;;5049888;28;20509;-54
2022/12/18 01:06:04;;;;;;;135.60;54.33;;;-4.60;99.90;;;;;;5050582;28;20076;-50
2022/12/18 01:08:30;;;;;;;135.65;53.35;;;-4.60;99.90;;;;;;5050502;28;20033;-54
2022/12/18 01:10:55;;;;;;;150.03;55.20;;;-4.60;99.90;;;;;;5051102;28;20453;-52
2022/12/18 01:13:21;;;;;;;131.73;51.97;;;-4.60;99.90;;;;;;5049629;28;20654;-52
2022/12/18 01:15:50;;;;;;;137.07;50.87;;;-4.60;99.90;;;;;;5051054;28;20036;-52
2022/12/18 01:18:16;;;;;;;141.00;57.35;;;-4.60;99.90;;;;;;5050500;28;20059;-53
2022/12/18 01:20:42;;;;;;;138.98;55.70;;;-4.60;99.90;;;;;;5050847;28;20494;-50
2022/12/18 01:23:08;;;;;;;149.98;56.15;;;-4.60;99.90;;;;;;5049655;28;20112;-53
2022/12/18 01:25:36;;;;;;;155.33;56.07;;;-4.70;99.90;;;;;;5050891;28;20033;-54
2022/12/18 01:28:02;;;;;;;153.13;57.13;;;-4.70;99.90;;;;;;5065391;28;20127;-54
2022/12/18 01:30:27;;;;;;;163.00;57.95;;;-4.70;99.90;;;;;;5048230;28;20049;-54
2022/12/18 01:32:53;;;;;;;149.27;54.03;;;-4.80;99.90;;;;;;5049970;28;20040;-54
2022/12/18 01:35:19;;;;;;;143.13;58.07;;;-4.80;99.90;;;;;;5050574;28;20494;-54
2022/12/18 01:37:44;;;;;;;145.33;52.73;;;-4.80;99.90;;;;;;5050223;28;20405;-54
2022/12/18 01:40:10;;;;;;;141.57;53.27;;;-4.90;99.90;;;;;;5050665;28;20486;-53
2022/12/18 01:42:36;;;;;;;136.05;49.30;;;-5.00;99.90;;;;;;5047491;28;20111;-50
2022/12/18 01:45:11;;;;;;;129.70;52.63;;;-5.10;99.90;;;;;;5049171;28;20065;-52
2022/12/18 01:47:50;;;;;;;137.52;52.35;;;-5.20;99.90;;;;;;5049455;28;20056;-50
2022/12/18 01:50:19;;;;;;;126.82;51.15;;;-5.20;99.90;;;;;;5049929;28;20037;-50
2022/12/18 01:52:57;;;;;;;126.18;54.17;;;-5.30;99.90;;;;;;5048558;28;20075;-50
2022/12/18 01:55:27;;;;;;;130.07;50.08;;;-5.30;99.90;;;;;;5050275;28;20041;-50
2022/12/18 01:57:56;;;;;;;133.05;49.85;;;-5.40;99.90;;;;;;5049767;28;20108;-51
2022/12/18 02:00:23;;;;;;;115.03;48.40;;;-5.40;99.90;;;;;;5045674;28;20524;-50
2022/12/18 02:02:49;;;;;;;118.40;47.80;;;-5.40;99.90;;;;;;5050577;28;20040;-50
2022/12/18 02:05:18;;;;;;;115.43;47.33;;;-5.50;99.90;;;;;;5048881;28;20043;-50
2022/12/18 02:07:50;;;;;;;109.20;42.88;;;-5.50;99.90;;;;;;5047956;28;20055;-51
2022/12/18 02:10:26;;;;;;;104.07;45.15;;;-5.60;99.90;;;;;;5050277;28;20037;-49
2022/12/18 02:13:13;;;;;;;106.57;48.88;;;-5.60;99.90;;;;;;5049595;28;20044;-51
2022/12/18 02:15:43;;;;;;;106.50;44.15;;;-5.70;99.90;;;;;;5049607;28;20037;-50
2022/12/18 02:18:11;;;;;;;101.07;44.47;;;-5.70;99.90;;;;;;5031723;28;20041;-51
2022/12/18 02:20:52;;;;;;;98.63;42.75;;;-5.70;99.90;;;;;;5049803;28;20049;-52
2022/12/18 02:23:41;;;;;;;103.05;40.90;;;-5.60;99.90;;;;;;5048264;28;20040;-50
2022/12/18 02:26:20;;;;;;;96.93;39.55;;;-5.60;99.90;;;;;;5049048;28;20049;-51
2022/12/18 02:28:54;;;;;;;97.38;39.60;;;-5.60;99.90;;;;;;5049630;28;20103;-50
2022/12/18 02:31:28;;;;;;;102.38;41.22;;;-5.60;99.90;;;;;;5049608;28;20072;-49
2022/12/18 02:34:00;;;;;;;94.97;36.13;;;-5.60;99.90;;;;;;5048431;28;20025;-54
2022/12/18 02:36:28;;;;;;;90.22;36.65;;;-5.60;99.90;;;;;;5046960;28;20163;-54
2022/12/18 02:38:55;;;;;;;81.88;34.70;;;-5.60;99.90;;;;;;5049119;28;20036;-53
2022/12/18 02:41:22;;;;;;;84.00;35.90;;;-5.60;99.90;;;;;;5031597;28;20465;-51
2022/12/18 02:43:53;;;;;;;89.75;33.65;;;-5.60;99.90;;;;;;5046652;28;20494;-54
2022/12/18 02:46:32;;;;;;;77.47;33.53;;;-5.60;99.90;;;;;;5049347;28;20064;-53
2022/12/18 02:49:23;;;;;;;82.18;34.30;;;-5.70;99.90;;;;;;5048772;28;20490;-53
2022/12/18 02:51:58;;;;;;;85.38;36.03;;;-5.70;99.90;;;;;;5047660;28;20040;-54
2022/12/18 02:54:36;;;;;;;86.25;35.78;;;-5.70;99.90;;;;;;5047214;28;20463;-53
2022/12/18 02:57:42;;;;;;;87.13;36.03;;;-5.70;99.90;;;;;;5048267;28;20047;-50
2022/12/18 03:00:14;;;;;;;80.32;34.97;;;-5.70;99.90;;;;;;5047661;28;20590;-54
2022/12/18 03:02:46;;;;;;;80.18;35.90;;;-5.70;99.90;;;;;;5049158;28;20090;-52
2022/12/18 03:05:18;;;;;;;78.57;34.90;;;-5.70;99.90;;;;;;5048013;28;20087;-52
2022/12/18 03:07:53;;;;;;;76.10;34.95;;;-5.70;99.90;;;;;;5048506;28;20466;-54
2022/12/18 03:10:25;;;;;;;81.95;33.22;;;-5.80;99.90;;;;;;5048577;28;20049;-50
2022/12/18 03:13:14;;;;;;;69.97;32.10;;;-5.70;99.90;;;;;;5048492;28;20047;-53
2022/12/18 03:15:47;;;;;;;70.32;31.13;;;-5.80;99.90;;;;;;5048526;28;20465;-54
2022/12/18 03:18:18;;;;;;;77.00;31.50;;;-5.80;99.90;;;;;;5045981;28;20033;-53
2022/12/18 03:20:45;;;;;;;73.80;32.17;;;-5.80;99.90;;;;;;5048444;28;20032;-54
2022/12/18 03:23:16;;;;;;;70.18;32.47;;;-5.80;99.90;;;;;;5047853;28;20045;-54
2022/12/18 03:25:44;;;;;;;75.50;33.45;;;-5.80;99.90;;;;;;5048688;28;20041;-54
2022/12/18 03:28:15;;;;;;;76.22;32.60;;;-5.90;99.90;;;;;;5048367;28;20045;-50
2022/12/18 03:30:45;;;;;;;69.93;30.08;;;-5.90;99.90;;;;;;5048239;28;20044;-50
2022/12/18 03:33:19;;;;;;;67.00;29.48;;;-5.90;99.90;;;;;;5047470;28;20598;-49
2022/12/18 03:35:45;;;;;;;70.88;29.02;;;-5.90;99.90;;;;;;5047252;28;20094;-51
2022/12/18 03:38:11;;;;;;;66.88;31.42;;;-5.90;99.90;;;;;;5048659;28;20048;-54
2022/12/18 03:41:03;;;;;;;70.75;30.65;;;-5.90;99.90;;;;;;5045825;28;20044;-53
2022/12/18 03:43:51;;;;;;;72.13;29.38;;;-5.90;99.90;;;;;;5047028;28;20036;-53
2022/12/18 03:46:38;;;;;;;68.82;30.95;;;-5.90;99.90;;;;;;5048395;28;20036;-53
2022/12/18 03:49:28;;;;;;;67.35;30.23;;;-5.90;99.90;;;;;;5045817;28;20045;-50
2022/12/18 03:52:08;;;;;;;66.35;30.20;;;-5.90;99.90;;;;;;5048545;28;20073;-50
2022/12/18 03:54:36;;;;;;;62.63;29.23;;;-5.90;99.90;;;;;;5046927;28;20044;-49
2022/12/18 03:57:06;;;;;;;63.58;28.27;;;-5.90;99.90;;;;;;5046018;28;20044;-53
2022/12/18 03:59:33;;;;;;;62.03;27.40;;;-6.00;99.90;;;;;;5048484;28;20037;-50
2022/12/18 04:02:01;;;;;;;65.03;28.48;;;-6.00;99.90;;;;;;5047471;28;20055;-50
2022/12/18 04:04:28;;;;;;;61.70;28.67;;;-6.00;99.90;;;;;;5045830;28;20485;-50
2022/12/18 04:06:55;;;;;;;61.63;26.52;;;-6.00;99.90;;;;;;5048009;28;20068;-49
2022/12/18 04:09:21;;;;;;;69.68;31.65;;;-6.00;99.90;;;;;;5048509;28;20037;-49
2022/12/18 04:11:47;;;;;;;56.70;27.80;;;-6.00;99.90;;;;;;5047891;28;20575;-53
2022/12/18 04:14:13;;;;;;;62.45;27.15;;;-6.10;99.90;;;;;;5046049;28;20076;-50
2022/12/18 04:16:39;;;;;;;58.88;28.52;;;-6.10;99.90;;;;;;5047873;28;20057;-49
2022/12/18 04:19:05;;;;;;;57.85;26.95;;;-6.10;99.90;;;;;;5047873;28;20114;-52
2022/12/18 04:21:30;;;;;;;56.03;25.95;;;-6.10;99.90;;;;;;5048054;28;20054;-51
2022/12/18 04:23:56;;;;;;;61.20;28.73;;;-6.10;99.90;;;;;;5046771;28;20045;-51
2022/12/18 04:26:22;;;;;;;56.63;27.37;;;-6.10;99.90;;;;;;5047694;28;20033;-52
2022/12/18 04:28:47;;;;;;;59.15;28.38;;;-6.20;99.90;;;;;;5046488;28;20033;-50
2022/12/18 04:31:13;;;;;;;59.70;28.63;;;-6.20;99.90;;;;;;5051294;28;20406;-49
2022/12/18 04:33:38;;;;;;;59.10;26.43;;;-6.20;99.90;;;;;;5050804;28;20041;-54
2022/12/18 04:36:04;;;;;;;56.37;27.63;;;-6.30;99.90;;;;;;5051975;28;20032;-51
2022/12/18 04:38:30;;;;;;;56.97;28.25;;;-6.30;99.90;;;;;;5051310;28;20082;-51
2022/12/18 04:40:55;;;;;;;63.50;29.00;;;-6.30;99.90;;;;;;5051712;28;20076;-54
2022/12/18 04:43:21;;;;;;;59.33;28.93;;;-6.30;99.90;;;;;;5050725;28;20676;-53
2022/12/18 04:45:47;;;;;;;57.70;27.43;;;-6.30;99.90;;;;;;5051196;28;20037;-53
2022/12/18 04:48:12;;;;;;;57.67;26.67;;;-6.30;99.90;;;;;;5051294;28;20032;-51
2022/12/18 04:50:38;;;;;;;53.00;25.30;;;-6.30;99.90;;;;;;5051714;28;20497;-53
2022/12/18 04:53:04;;;;;;;56.38;26.13;;;-6.30;99.90;;;;;;5050410;28;20120;-53
2022/12/18 04:55:29;;;;;;;58.53;25.40;;;-6.30;99.90;;;;;;5051452;28;20033;-53
2022/12/18 04:57:55;;;;;;;50.77;25.37;;;-6.30;99.90;;;;;;5050880;28;20282;-54
2022/12/18 05:00:21;;;;;;;52.80;25.47;;;-6.30;99.90;;;;;;5050824;28;20049;-51
2022/12/18 05:02:47;;;;;;;;;;;-6.30;99.90;;;;;;5051502;28;20033;-54
2022/12/18 05:05:13;;;;;;;53.20;23.30;;;-6.30;99.90;;;;;;5050626;28;19923;-54
2022/12/18 05:07:38;;;;;;;58.42;27.42;;;-6.20;99.90;;;;;;5049306;28;20099;-54
2022/12/18 05:10:04;;;;;;;55.97;23.57;;;-6.30;99.90;;;;;;5051222;28;20087;-52
2022/12/18 05:12:31;;;;;;;50.83;24.00;;;-6.20;99.90;;;;;;5050989;28;20044;-53
2022/12/18 05:14:56;;;;;;;51.10;22.35;;;-6.30;99.90;;;;;;5049421;28;20132;-54
2022/12/18 05:17:22;;;;;;;53.70;27.10;;;-6.30;99.90;;;;;;5050903;28;20174;-53
2022/12/18 05:19:47;;;;;;;50.27;24.53;;;-6.30;99.90;;;;;;5050977;28;20044;-53
2022/12/18 05:22:13;;;;;;;54.47;25.27;;;-6.40;99.90;;;;;;5051103;28;20517;-53
2022/12/18 05:24:38;;;;;;;58.87;25.67;;;-6.40;99.90;;;;;;5049837;28;20549;-53
2022/12/18 05:27:04;;;;;;;50.37;26.33;;;-6.50;99.90;;;;;;5050604;28;20464;-54
2022/12/18 05:29:29;;;;;;;60.93;25.43;;;-6.60;99.90;;;;;;5049958;28;20497;-54
2022/12/18 05:31:55;;;;;;;51.63;24.33;;;-6.60;99.90;;;;;;5051014;28;20037;-52
2022/12/18 05:34:21;;;;;;;52.23;24.63;;;-6.60;99.90;;;;;;5050101;28;20078;-49
2022/12/18 05:36:46;;;;;;;53.77;25.03;;;-6.60;99.90;;;;;;5050810;28;20446;-51
2022/12/18 05:39:12;;;;;;;46.13;23.97;;;-6.60;99.90;;;;;;5050756;28;20102;-50
2022/12/18 05:41:37;;;;;;;57.38;25.17;;;-6.60;99.90;;;;;;5050316;28;20037;-50
2022/12/18 05:44:03;;;;;;;52.37;23.60;;;-6.60;99.90;;;;;;5049058;28;20041;-53
2022/12/18 05:46:29;;;;;;;56.27;25.77;;;-6.60;99.90;;;;;;5050777;28;20067;-53
2022/12/18 05:48:54;;;;;;;58.33;27.58;;;-6.60;99.90;;;;;;5050316;28;20040;-50
2022/12/18 05:51:21;;;;;;;56.17;27.47;;;-6.60;99.90;;;;;;5049987;28;20041;-49
2022/12/18 05:53:48;;;;;;;51.55;23.58;;;-6.60;99.90;;;;;;5049606;28;20056;-51
2022/12/18 05:56:19;;;;;;;53.67;26.00;;;-6.60;99.90;;;;;;5048717;28;20037;-52
2022/12/18 05:58:46;;;;;;;54.47;24.80;;;-6.60;99.90;;;;;;5049703;28;20036;-50
2022/12/18 06:01:15;;;;;;;51.17;24.98;;;-6.60;99.90;;;;;;5050395;28;20040;-53
2022/12/18 06:03:41;;;;;;;50.33;24.98;;;-6.70;99.90;;;;;;5049551;28;20041;-54
2022/12/18 06:06:17;;;;;;;48.87;23.80;;;-6.70;99.90;;;;;;5050255;28;20406;-50
2022/12/18 06:08:44;;;;;;;42.03;22.88;;;-6.70;99.90;;;;;;5050105;28;20044;-49
2022/12/18 06:11:09;;;;;;;50.63;24.92;;;-6.70;99.90;;;;;;5049404;28;20037;-51
2022/12/18 06:13:35;;;;;;;54.28;25.45;;;-6.70;99.90;;;;;;5049183;28;20497;-49
2022/12/18 06:16:07;;;;;;;55.17;27.17;;;-6.70;99.90;;;;;;5049637;28;20068;-49
2022/12/18 06:18:33;;;;;;;47.80;22.58;;;-6.70;99.90;;;;;;5049025;28;20041;-51
2022/12/18 06:21:00;;;;;;;51.40;24.98;;;-6.60;99.90;;;;;;5047143;28;20056;-49
2022/12/18 06:23:26;;;;;;;54.45;26.92;;;-6.70;99.90;;;;;;5048276;28;20045;-51
2022/12/18 06:25:52;;;;;;;51.35;25.08;;;-6.70;99.90;;;;;;5049012;28;20521;-51
2022/12/18 06:28:17;;;;;;;56.80;27.13;;;-6.70;99.90;;;;;;5049442;28;20120;-50
2022/12/18 06:30:44;;;;;;;55.60;28.80;;;-6.70;99.90;;;;;;5048042;28;20514;-49
2022/12/18 06:33:10;;;;;;;54.45;27.38;;;-6.70;99.90;;;;;;5046496;28;20089;-50
2022/12/18 06:35:36;;;;;;;54.37;26.57;;;-6.70;99.90;;;;;;5049648;28;20029;-51
2022/12/18 06:38:02;;;;;;;47.57;24.73;;;-6.70;99.90;;;;;;5049439;28;20555;-50
2022/12/18 06:40:28;;;;;;;51.75;26.55;;;-6.70;99.90;;;;;;5048871;28;20044;-53
2022/12/18 06:42:54;;;;;;;48.55;23.80;;;-6.70;99.90;;;;;;5047462;28;20118;-51
2022/12/18 06:45:19;;;;;;;51.40;25.33;;;-6.70;99.90;;;;;;5048716;28;20126;-49
2022/12/18 06:47:45;;;;;;;53.80;27.15;;;-6.80;99.90;;;;;;5049398;28;20033;-48
2022/12/18 06:50:11;;;;;;;51.83;25.47;;;-6.80;99.90;;;;;;5048758;28;20029;-50
2022/12/18 06:52:38;;;;;;;;;;;-6.80;99.90;;;;;;5048475;28;20422;-53
2022/12/18 06:55:05;;;;;;;52.88;25.25;;;-6.90;99.90;;;;;;5046519;28;20275;-52
2022/12/18 06:57:30;;;;;;;49.80;25.42;;;-6.90;99.90;;;;;;5048963;28;20044;-53
2022/12/18 06:59:56;;;;;;;51.80;23.63;;;-6.90;99.90;;;;;;5049235;28;20040;-53
2022/12/18 07:02:21;;;;;;;47.23;25.33;;;-6.90;99.90;;;;;;5049086;28;20040;-53
2022/12/18 07:04:47;;;;;;;47.63;25.63;;;-6.90;99.90;;;;;;5048031;28;20126;-49
2022/12/18 07:07:12;;;;;;;52.20;27.60;;;-6.90;99.90;;;;;;5048236;28;20063;-52
2022/12/18 07:09:38;;;;;;;46.20;24.70;;;-6.90;99.90;;;;;;5048366;28;20037;-53
2022/12/18 07:12:04;;;;;;;45.50;23.10;;;-7.00;99.90;;;;;;5049109;28;20048;-52
2022/12/18 07:14:30;;;;;;;46.35;24.05;;;-6.90;99.90;;;;;;5047826;28;20481;-49
2022/12/18 07:16:55;;;;;;;41.63;23.30;;;-6.90;99.90;;;;;;5048052;28;20064;-52
2022/12/18 07:19:21;;;;;;;41.47;21.90;;;-6.90;99.90;;;;;;5049074;28;20036;-52
2022/12/18 07:21:46;;;;;;;47.63;23.93;;;-6.90;99.90;;;;;;5048414;28;20584;-52
2022/12/18 07:24:12;;;;;;;49.50;24.73;;;-6.90;99.90;;;;;;5047388;28;20040;-53
2022/12/18 07:26:38;;;;;;;46.92;24.40;;;-6.90;99.90;;;;;;5048480;28;20044;-52
2022/12/18 07:29:03;;;;;;;41.27;22.97;;;-6.90;99.90;;;;;;5048343;28;20392;-53
2022/12/18 07:31:29;;;;;;;42.63;24.87;;;-6.90;99.90;;;;;;5048580;28;20349;-50
2022/12/18 07:33:55;;;;;;;42.03;22.77;;;-6.90;99.90;;;;;;5047364;28;20040;-53
2022/12/18 07:36:20;;;;;;;38.33;23.67;;;-6.90;99.90;;;;;;5047382;28;20559;-52
2022/12/18 07:38:52;;;;;;;43.17;23.00;;;-6.80;99.90;;;;;;5047708;28;20437;-52
2022/12/18 07:41:18;;;;;;;42.10;24.20;;;-6.80;99.90;;;;;;5046776;28;20110;-53
2022/12/18 07:43:44;;;;;;;42.28;25.67;;;-6.80;99.90;;;;;;5047488;28;20406;-54
2022/12/18 07:46:11;;;;;;;38.78;22.88;;;-6.70;99.90;;;;;;5048696;28;20110;-53
2022/12/18 07:48:36;;;;;;;;;;;-6.60;99.90;;;;;;5048886;28;20104;-49
2022/12/18 07:51:04;;;;;;;40.55;22.65;;;-6.50;99.90;;;;;;5048422;28;19921;-49
2022/12/18 07:53:30;;;;;;;42.00;21.90;;;-6.50;99.90;;;;;;5047234;28;20175;-52
2022/12/18 07:56:05;;;;;;;39.30;22.05;;;-6.40;99.90;;;;;;5047062;28;20111;-50
2022/12/18 07:58:31;;;;;;;46.45;23.77;;;-6.30;99.90;;;;;;5046577;28;20044;-49
2022/12/18 08:01:04;;;;;;;42.00;22.73;;;-6.20;99.90;;;;;;5048640;28;20033;-49
2022/12/18 08:03:29;;;;;;;44.25;21.52;;;-6.00;99.90;;;;;;5047031;28;20044;-50
2022/12/18 08:06:02;;;;;;;45.97;22.73;;;-6.00;99.90;;;;;;5051454;28;20106;-52
2022/12/18 08:08:28;;;;;;;33.72;20.75;;;-5.90;99.90;;;;;;5051224;28;20116;-49
2022/12/18 08:10:54;;;;;;;40.33;21.25;;;-5.70;99.90;;;;;;5051881;28;20033;-51
2022/12/18 08:13:19;;;;;;;36.10;20.08;;;-5.60;99.90;;;;;;5049103;28;20095;-51
2022/12/18 08:15:45;;;;;;;31.73;19.20;;;-5.40;99.90;;;;;;5052272;28;20037;-50
2022/12/18 08:18:10;;;;;;;37.27;19.90;;;-5.20;99.90;;;;;;5050278;28;20040;-49
2022/12/18 08:20:36;;;;;;;34.30;20.30;;;-5.10;99.90;;;;;;5051935;28;20040;-47
2022/12/18 08:23:01;;;;;;;36.53;21.00;;;-5.20;99.90;;;;;;5050863;28;20041;-52
2022/12/18 08:25:27;;;;;;;33.90;19.67;;;-5.20;99.90;;;;;;5051801;28;20036;-49
2022/12/18 08:27:53;;;;;;;38.13;21.40;;;-5.20;99.90;;;;;;5051588;28;20106;-48
2022/12/18 08:30:19;;;;;;;32.97;21.02;;;-5.20;99.90;;;;;;5046347;28;20045;-49
2022/12/18 08:32:44;;;;;;;36.20;21.33;;;-5.20;99.90;;;;;;5049089;28;20040;-53
2022/12/18 08:35:11;;;;;;;33.07;19.90;;;-5.20;99.90;;;;;;5050225;28;20051;-49
2022/12/18 08:37:37;;;;;;;29.42;18.90;;;-5.10;99.90;;;;;;5050912;28;20033;-49
2022/12/18 08:40:03;;;;;;;32.30;19.97;;;-5.00;99.90;;;;;;5048068;28;20044;-49
2022/12/18 08:45:13;;;;;;;29.17;17.30;;;-4.90;99.90;;;;;;5050581;28;20036;-52
2022/12/18 08:47:38;;;;;;;31.60;18.13;;;-5.00;99.90;;;;;;5051473;28;20045;-51
2022/12/18 08:50:04;;;;;;;35.93;19.43;;;-4.90;99.90;;;;;;5051294;28;20134;-49
2022/12/18 08:52:32;;;;;;;32.92;19.85;;;-4.80;99.90;;;;;;5052521;28;20502;-52
2022/12/18 08:54:57;;;;;;;29.08;18.02;;;-4.80;99.90;;;;;;5050286;28;20036;-49
2022/12/18 08:57:23;;;;;;;26.50;16.27;;;-4.70;99.90;;;;;;5050491;28;20037;-53
2022/12/18 08:59:48;;;;;;;32.47;17.17;;;-4.50;99.90;;;;;;5051535;28;20032;-53
2022/12/18 09:02:14;;;;;;;26.70;16.57;;;-4.30;99.90;;;;;;5051380;28;20040;-52
2022/12/18 09:04:39;;;;;;;24.27;14.93;;;-4.10;99.90;;;;;;5050049;28;20540;-53
2022/12/18 09:07:05;;;;;;;24.23;15.07;;;-3.90;99.90;;;;;;5050645;28;20607;-53
2022/12/18 09:09:31;;;;;;;27.67;16.80;;;-3.70;99.90;;;;;;5050944;28;20068;-52
2022/12/18 09:11:56;;;;;;;19.93;14.03;;;-3.40;99.90;;;;;;5050527;28;20409;-52
2022/12/18 09:14:22;;;;;;;22.83;14.03;;;-3.20;99.90;;;;;;5049410;28;20570;-53
2022/12/18 09:16:47;;;;;;;27.50;12.87;;;-2.90;99.90;;;;;;5048563;28;20044;-54
2022/12/18 09:19:13;;;;;;;25.07;13.43;;;-2.70;99.90;;;;;;5048472;28;20037;-53
2022/12/18 09:21:39;;;;;;;16.25;12.45;;;-2.60;99.90;;;;;;5050330;28;20072;-53
2022/12/18 09:24:05;;;;;;;24.35;13.15;;;-2.70;99.90;;;;;;5044912;28;20068;-54
2022/12/18 09:26:31;;;;;;;20.17;12.63;;;-2.80;99.90;;;;;;5046413;28;20043;-53
2022/12/18 09:28:56;;;;;;;17.45;12.63;;;-2.80;99.90;;;;;;5047765;28;20040;-49
2022/12/18 09:31:24;;;;;;;18.67;12.43;;;-2.70;99.90;;;;;;5049602;28;20394;-50
2022/12/18 09:33:50;;;;;;;18.75;11.50;;;-2.50;99.90;;;;;;5080316;28;20116;-51
2022/12/18 09:36:17;;;;;;;21.23;10.98;;;-2.40;99.90;;;;;;5049181;28;20043;-51
2022/12/18 09:38:43;;;;;;;18.42;10.88;;;-2.10;99.90;;;;;;5048297;28;20033;-53
2022/12/18 09:41:30;;;;;;;17.10;9.80;;;-1.90;99.90;;;;;;5048225;28;20045;-50
2022/12/18 09:44:02;;;;;;;16.80;10.50;;;-1.70;99.90;;;;;;5046100;28;20064;-50
2022/12/18 09:46:36;;;;;;;12.35;9.27;;;-1.60;99.90;;;;;;5048193;28;20486;-52
2022/12/18 09:49:11;;;;;;;11.25;7.97;;;-1.60;99.90;;;;;;5046000;28;20118;-50
2022/12/18 09:51:48;;;;;;;13.32;8.80;;;-1.70;99.90;;;;;;5049176;28;20067;-50
2022/12/18 09:54:21;;;;;;;16.35;9.25;;;-1.70;99.90;;;;;;5049257;28;20382;-51
2022/12/18 09:56:47;;;;;;;17.10;10.55;;;-1.80;99.90;;;;;;5048887;28;20041;-51
2022/12/18 09:59:41;;;;;;;16.85;9.65;;;-1.80;99.90;;;;;;5049732;28;20041;-52
2022/12/18 10:02:20;;;;;;;17.75;10.70;;;-1.80;99.90;;;;;;5044504;28;20176;-50
2022/12/18 10:04:54;;;;;;;10.80;8.35;;;-1.80;99.90;;;;;;5047682;28;20052;-53
2022/12/18 10:07:29;;;;;;;14.73;8.63;;;-1.80;99.90;;;;;;5044213;28;20041;-49
2022/12/18 10:10:12;;;;;;;11.70;8.80;;;-1.80;99.90;;;;;;5046511;28;20135;-50
2022/12/18 10:13:19;;;;;;;14.05;8.77;;;-1.80;99.90;;;;;;5047989;28;20086;-51
2022/12/18 10:16:17;;;;;;;13.00;8.98;;;-1.60;99.90;;;;;;5047018;28;20068;-49
2022/12/18 10:19:13;;;;;;;9.57;7.53;;;-1.40;99.90;;;;;;5045899;28;20297;-51
2022/12/18 10:22:08;;;;;;;11.63;8.32;;;-1.30;99.90;;;;;;5050102;28;20124;-50
2022/12/18 10:24:53;;;;;;;9.48;7.05;;;-1.40;99.90;;;;;;5032621;28;20155;-52
2022/12/18 10:27:23;;;;;;;8.82;7.25;;;-1.50;99.90;;;;;;5043270;28;20420;-53
2022/12/18 10:29:48;;;;;;;10.43;7.85;;;-1.70;99.90;;;;;;5045605;28;20094;-49
2022/12/18 10:32:18;;;;;;;10.83;7.43;;;-1.80;99.90;;;;;;5046529;28;20037;-51
2022/12/18 10:34:51;;;;;;;13.82;7.43;;;-1.80;99.90;;;;;;5042769;28;20292;-53
2022/12/18 10:37:21;;;;;;;11.55;6.95;;;-1.90;99.90;;;;;;5045561;28;20051;-52
2022/12/18 10:40:05;;;;;;;10.82;7.82;;;-1.90;99.90;;;;;;5041964;28;20394;-53
2022/12/18 10:42:31;;;;;;;9.00;6.97;;;-2.00;99.90;;;;;;5042352;28;20029;-54
2022/12/18 10:45:12;;;;;;;13.83;7.47;;;-2.00;99.90;;;;;;5043697;28;20043;-52
2022/12/18 10:47:44;;;;;;;11.35;7.32;;;-2.00;99.90;;;;;;5045052;28;20040;-52
2022/12/18 10:50:22;;;;;;;10.95;7.25;;;-2.00;99.90;;;;;;5044758;28;20076;-52
2022/12/18 10:52:58;;;;;;;10.38;7.32;;;-2.00;99.90;;;;;;5045843;28;20037;-52
2022/12/18 10:55:45;;;;;;;13.77;7.60;;;-2.00;99.90;;;;;;5044028;28;20044;-54
2022/12/18 10:58:25;;;;;;;8.93;5.40;;;-2.00;99.90;;;;;;5045975;28;20029;-54
2022/12/18 11:01:06;;;;;;;11.05;6.50;;;-2.00;99.90;;;;;;5046155;28;20048;-49
2022/12/18 11:03:36;;;;;;;9.48;6.25;;;-1.90;99.90;;;;;;5042697;28;20052;-51
2022/12/18 11:06:12;;;;;;;11.07;7.35;;;-1.90;99.90;;;;;;5073615;28;20045;-49
2022/12/18 11:08:40;;;;;;;12.07;6.07;;;-1.90;99.90;;;;;;5043602;28;20494;-49
2022/12/18 11:11:28;;;;;;;6.78;5.60;;;-1.80;99.90;;;;;;5045051;28;20482;-51
2022/12/18 11:14:11;;;;;;;7.72;5.65;;;-1.80;99.90;;;;;;5043242;28;20140;-49
2022/12/18 11:16:44;;;;;;;9.95;6.15;;;-1.80;99.90;;;;;;5041980;28;20033;-51
2022/12/18 11:19:21;;;;;;;8.05;5.90;;;-1.70;99.90;;;;;;5038424;28;20033;-50
2022/12/18 11:21:48;;;;;;;9.40;6.80;;;-1.70;99.90;;;;;;5043045;28;20514;-50
2022/12/18 11:24:22;;;;;;;8.90;6.93;;;-1.70;99.90;;;;;;5044065;28;20033;-50
2022/12/18 11:26:48;;;;;;;9.50;6.45;;;-1.60;99.90;;;;;;5046166;28;20084;-49
2022/12/18 11:29:18;;;;;;;9.18;6.95;;;-1.60;99.90;;;;;;5045561;28;20079;-50
2022/12/18 11:31:44;;;;;;;10.15;7.38;;;-1.60;99.90;;;;;;5044420;28;20091;-50
2022/12/18 11:34:28;;;;;;;9.57;6.37;;;-1.60;99.90;;;;;;5044028;28;20036;-51
2022/12/18 11:36:54;;;;;;;12.35;6.95;;;-1.50;99.90;;;;;;5043959;28;20045;-52
2022/12/18 11:39:35;;;;;;;;;;;-1.50;99.90;;;;;;5046220;28;20037;-49
2022/12/18 11:42:12;;;;;;;12.40;6.93;;;-1.50;99.90;;;;;;5045177;28;20301;-50
2022/12/18 11:44:59;;;;;;;11.32;7.78;;;-1.50;99.90;;;;;;5043291;28;20029;-50
2022/12/18 11:47:29;;;;;;;11.82;8.25;;;-1.40;99.90;;;;;;5042479;28;20033;-52
2022/12/18 11:49:59;;;;;;;11.70;7.72;;;-1.40;99.90;;;;;;5040903;28;20045;-50
2022/12/18 11:52:39;;;;;;;12.77;7.43;;;-1.40;99.90;;;;;;5044086;28;20029;-50
2022/12/18 11:55:21;;;;;;;13.27;7.68;;;-1.40;99.90;;;;;;5045131;28;20064;-54
2022/12/18 11:58:12;;;;;;;10.38;7.57;;;-1.30;99.90;;;;;;5045063;28;20494;-49
2022/12/18 12:00:48;;;;;;;12.27;8.90;;;-1.30;99.90;;;;;;5044362;28;20394;-50
2022/12/18 12:03:24;;;;;;;12.55;8.02;;;-1.30;99.90;;;;;;5043597;28;20343;-51
2022/12/18 12:06:14;;;;;;;14.80;8.43;;;-1.30;99.90;;;;;;5042880;28;20143;-51
2022/12/18 12:08:43;;;;;;;9.98;7.70;;;-1.20;99.90;;;;;;5042559;28;20118;-54
2022/12/18 12:12:02;;;;;;;12.10;7.93;;;-1.20;99.90;;;;;;5042378;28;20088;-52
2022/12/18 12:14:28;;;;;;;10.20;7.32;;;-1.10;99.90;;;;;;5007300;28;20066;-49
2022/12/18 12:17:11;;;;;;;10.57;7.67;;;-1.10;99.90;;;;;;5006778;28;20471;-52
2022/12/18 12:19:56;;;;;;;8.32;6.45;;;-1.10;99.90;;;;;;5004018;28;20100;-52
2022/12/18 12:22:30;;;;;;;11.63;7.38;;;-1.10;99.90;;;;;;5005058;28;20046;-58
2022/12/18 12:25:10;;;;;;;9.60;6.95;;;-1.10;99.90;;;;;;5004595;28;20049;-54
2022/12/18 12:27:54;;;;;;;13.02;7.55;;;-1.00;99.90;;;;;;5006274;28;20511;-53
2022/12/18 12:30:56;;;;;;;12.55;8.45;;;-1.00;99.90;;;;;;5008570;28;20388;-54
2022/12/18 12:33:22;;;;;;;12.45;7.07;;;-1.00;99.90;;;;;;5007628;28;20030;-52
2022/12/18 12:36:04;;;;;;;11.00;7.70;;;-1.00;99.90;;;;;;5008613;28;20042;-53
2022/12/18 12:38:45;;;;;;;10.98;7.05;;;-0.90;99.90;;;;;;5008802;28;20137;-54
2022/12/18 12:44:04;;;;;;;9.55;7.65;;;-0.90;99.90;;;;;;5004812;28;20081;-49
2022/12/18 12:46:32;;;;;;;10.80;7.25;;;-0.90;99.90;;;;;;5005999;28;20046;-50
2022/12/18 12:49:03;;;;;;;10.75;7.72;;;-0.80;99.90;;;;;;5036025;28;20605;-50
2022/12/18 12:51:34;;;;;;;10.95;8.43;;;-0.80;99.90;;;;;;5047366;28;20099;-51
2022/12/18 12:54:04;;;;;;;10.57;7.55;;;-0.80;99.90;;;;;;5047317;28;20037;-50